Аэропорт: Алматы. Алма-Ата

ICAO: UAAA

METAR:
2021-04-21 20:00:00
UAAA 212000Z 28002MPS 1400 R23L/P2000U -SHSN BR SCT004 BKN017CB OVC100 M02/M02 Q1028 R23L/2/0250 TEMPO 1200 SHSN BR RMK QBB140
METAR:
2021-04-21 17:01:00
TAF UAAA 211701Z 2118/2218 33003G08MPS 5000 -SHSN BR BKN007 OVC015CB TX05/2208Z TNM04/2201Z TEMPO 2118/2201 29003G12MPS 2500 SHSN BR BKN004 OVC011CB TEMPO 2201/2206 25003G08MPS -SHSNRA FM220600 27003G08MPS 6000 BKN011 OVC050CB TEMPO 2213/2218 16003MPS 1500 BR FU